createdAt,value
2023-10-05T00:01:54.629Z,99019.81
2023-10-05T00:04:23.281Z,99024.94
2023-10-05T00:06:55.045Z,99015.53
2023-10-05T00:09:23.571Z,99017.25
2023-10-05T00:11:54.493Z,99010.41
2023-10-05T00:14:25.325Z,99011.28
2023-10-05T00:16:56.218Z,99015.53
2023-10-05T00:19:29.902Z,99007.88
2023-10-05T00:21:58.536Z,99015.53
2023-10-05T00:24:31.130Z,99010.41
2023-10-05T00:26:59.631Z,99001.91
2023-10-05T00:29:30.216Z,99006.16
2023-10-05T00:32:01.959Z,99003.59
2023-10-05T00:34:30.261Z,99001.03
2023-10-05T00:37:00.897Z,98996.75
2023-10-05T00:39:31.279Z,99001.91
2023-10-05T00:42:09.969Z,99004.47
2023-10-05T00:44:42.113Z,99002.75
2023-10-05T00:47:14.690Z,99007.03
2023-10-05T00:49:53.132Z,99001.06
2023-10-05T00:52:26.176Z,99009.56
2023-10-05T00:54:57.451Z,99018.13
2023-10-05T00:57:26.139Z,99017.25
2023-10-05T01:00:20.540Z,99012.13
2023-10-05T01:03:08.494Z,99017.25
2023-10-05T01:05:49.057Z,99018.09
2023-10-05T01:08:24.200Z,98996.75
2023-10-05T01:10:55.368Z,99016.38
2023-10-05T01:13:30.220Z,99021.50
2023-10-05T01:16:00.571Z,99023.22
2023-10-05T01:18:30.996Z,98997.59
2023-10-05T01:20:59.024Z,99021.50
2023-10-05T01:23:39.670Z,99023.19
2023-10-05T01:26:12.315Z,99026.63
2023-10-05T01:28:42.175Z,99023.19
2023-10-05T01:31:16.328Z,99021.47
2023-10-05T01:33:44.931Z,99018.91
2023-10-05T01:36:13.202Z,99017.19
2023-10-05T01:38:42.351Z,99005.22
2023-10-05T01:41:11.089Z,98994.19
2023-10-05T01:43:43.733Z,98994.16
2023-10-05T01:46:12.855Z,98986.47
2023-10-05T01:48:42.221Z,98986.47
2023-10-05T01:51:15.131Z,98985.63
2023-10-05T01:53:46.367Z,98983.94
2023-10-05T01:56:19.239Z,98968.53
2023-10-05T01:58:51.497Z,98984.78
2023-10-05T02:01:22.119Z,98989.03
2023-10-05T02:03:51.416Z,98981.38
2023-10-05T02:06:19.621Z,98971.13
2023-10-05T02:08:49.054Z,98969.44
2023-10-05T02:11:20.448Z,98966.88
2023-10-05T02:13:49.420Z,98959.22
2023-10-05T02:16:19.342Z,98964.31
2023-10-05T02:18:48.204Z,98964.31
2023-10-05T02:21:32.286Z,98965.16
2023-10-05T02:24:11.913Z,98957.50
2023-10-05T02:26:53.726Z,98955.81
2023-10-05T02:29:21.546Z,98968.59
2023-10-05T02:31:58.810Z,98964.31
2023-10-05T02:34:30.784Z,98960.91
2023-10-05T02:36:58.900Z,98937.00
2023-10-05T02:39:28.278Z,98958.34
2023-10-05T02:41:57.776Z,98961.75
2023-10-05T02:44:29.863Z,98961.75
2023-10-05T02:46:57.948Z,98966.91
2023-10-05T02:49:27.066Z,98960.91
2023-10-05T02:51:55.835Z,98964.31
2023-10-05T02:54:24.462Z,98964.34
2023-10-05T02:56:55.191Z,98964.31
2023-10-05T02:59:27.829Z,98953.25
2023-10-05T03:01:56.975Z,98957.50
2023-10-05T03:04:33.183Z,98960.91
2023-10-05T03:07:03.938Z,98954.06
2023-10-05T03:09:31.795Z,98948.13
2023-10-05T03:12:00.897Z,98950.66
2023-10-05T03:14:28.805Z,98947.25
2023-10-05T03:16:58.572Z,98938.75
2023-10-05T03:19:27.990Z,98939.56
2023-10-05T03:21:59.438Z,98950.69
2023-10-05T03:24:27.589Z,98956.63
2023-10-05T03:26:56.893Z,98955.78
2023-10-05T03:29:26.355Z,98940.41
2023-10-05T03:31:55.474Z,98964.31
2023-10-05T03:34:27.801Z,98960.91
2023-10-05T03:36:56.677Z,98960.91
2023-10-05T03:39:26.854Z,98957.50
2023-10-05T03:41:55.287Z,98954.94
2023-10-05T03:44:25.740Z,98963.47
2023-10-05T03:46:55.124Z,98958.34
2023-10-05T03:49:23.947Z,98947.22
2023-10-05T03:51:52.474Z,98948.94
2023-10-05T03:54:21.346Z,98954.94
2023-10-05T03:56:53.872Z,98952.38
2023-10-05T03:59:21.768Z,98961.75
2023-10-05T04:01:50.742Z,98962.63
2023-10-05T04:04:23.330Z,98966.88
2023-10-05T04:06:52.740Z,98972.03
2023-10-05T04:09:21.085Z,98967.72
2023-10-05T04:11:50.402Z,98976.28
2023-10-05T04:14:18.858Z,98974.56
2023-10-05T04:16:49.962Z,98971.16
2023-10-05T04:19:19.662Z,98977.13
2023-10-05T04:21:47.653Z,98977.97
2023-10-05T04:24:16.334Z,98983.13
2023-10-05T04:26:47.123Z,98985.69
2023-10-05T04:29:16.110Z,98974.59
2023-10-05T04:31:49.789Z,98963.47
2023-10-05T04:34:20.983Z,98966.91
2023-10-05T04:36:49.822Z,98972.03
2023-10-05T04:39:23.100Z,98966.03
2023-10-05T04:41:51.810Z,98971.16
2023-10-05T04:44:19.965Z,98959.22
2023-10-05T04:46:49.953Z,98964.34
2023-10-05T04:49:21.607Z,98964.34
2023-10-05T04:51:49.483Z,98966.91
2023-10-05T04:54:19.161Z,98969.47
2023-10-05T04:57:04.092Z,98978.84
2023-10-05T05:00:00.020Z,98982.25
2023-10-05T05:02:48.747Z,98971.16
2023-10-05T05:05:35.973Z,98974.56
2023-10-05T05:08:04.267Z,98981.38
2023-10-05T05:10:32.390Z,98986.53
2023-10-05T05:13:01.262Z,98980.53
2023-10-05T05:15:29.857Z,98960.94
2023-10-05T05:17:59.704Z,98968.59
2023-10-05T05:20:29.101Z,98972.88
2023-10-05T05:22:56.938Z,98966.91
2023-10-05T05:25:25.069Z,98973.72
2023-10-05T05:27:56.810Z,98972.88
2023-10-05T05:30:27.483Z,98965.19
2023-10-05T05:32:57.729Z,98962.63
2023-10-05T05:35:25.767Z,98960.06
2023-10-05T05:37:57.569Z,98978.84
2023-10-05T05:40:29.914Z,98968.59
2023-10-05T05:42:58.783Z,98966.00
2023-10-05T05:45:26.918Z,98960.88
2023-10-05T05:47:56.076Z,98954.91
2023-10-05T05:50:30.280Z,98955.75
2023-10-05T05:52:59.860Z,98958.31
2023-10-05T05:55:28.290Z,98963.44
2023-10-05T05:57:57.194Z,98951.44
2023-10-05T06:00:25.263Z,98956.53
2023-10-05T06:02:54.954Z,98959.91
2023-10-05T06:05:24.838Z,98960.75
2023-10-05T06:07:52.865Z,98949.56
2023-10-05T06:10:29.754Z,98957.28
2023-10-05T06:12:59.496Z,98960.66
2023-10-05T06:15:28.108Z,98960.63
2023-10-05T06:17:56.090Z,98972.63
2023-10-05T06:20:24.026Z,98971.69
2023-10-05T06:22:52.182Z,98976.78
2023-10-05T06:25:21.854Z,98952.81
2023-10-05T06:27:52.595Z,98949.34
2023-10-05T06:30:22.181Z,98946.75
2023-10-05T06:32:50.623Z,98924.59
2023-10-05T06:35:19.382Z,98935.63
2023-10-05T06:37:50.188Z,98921.88
2023-10-05T06:40:23.331Z,98929.59
2023-10-05T06:42:53.206Z,98931.28
2023-10-05T06:45:22.229Z,98932.97
2023-10-05T06:47:50.477Z,98935.53
2023-10-05T06:50:19.059Z,98950.06
2023-10-05T06:52:48.168Z,98958.59
2023-10-05T06:55:18.875Z,98961.97
2023-10-05T06:57:48.002Z,98955.06
2023-10-05T07:00:21.592Z,98961.81
2023-10-05T07:02:51.715Z,98975.44
2023-10-05T07:05:19.952Z,98986.44
2023-10-05T07:07:48.189Z,98966.53
2023-10-05T07:10:17.436Z,98957.78
2023-10-05T07:12:47.985Z,98965.19
2023-10-05T07:15:19.359Z,98972.72
2023-10-05T07:17:48.891Z,98973.78
2023-10-05T07:20:17.877Z,98978.44
2023-10-05T07:22:48.404Z,98984.28
2023-10-05T07:25:18.394Z,98982.44
2023-10-05T07:27:49.071Z,98984.13
2023-10-05T07:30:18.810Z,98977.56
2023-10-05T07:32:52.485Z,98976.06
2023-10-05T07:35:29.583Z,98982.63
2023-10-05T07:37:57.540Z,98989.47
2023-10-05T07:40:25.603Z,98981.72
2023-10-05T07:42:53.414Z,98986.47
2023-10-05T07:45:23.498Z,98996.34
2023-10-05T07:47:51.417Z,98990.56
2023-10-05T07:50:19.557Z,98985.50
2023-10-05T07:52:51.901Z,98989.06
2023-10-05T07:55:20.103Z,98964.72
2023-10-05T07:57:47.980Z,98990.06
2023-10-05T08:00:17.081Z,98980.41
2023-10-05T08:02:47.673Z,98987.47
2023-10-05T08:05:16.710Z,98987.31
2023-10-05T08:07:45.375Z,98989.00
2023-10-05T08:10:22.055Z,98984.00
2023-10-05T08:12:50.860Z,98994.53
2023-10-05T08:15:22.865Z,98991.41
2023-10-05T08:17:52.251Z,99001.72
2023-10-05T08:20:25.777Z,98985.53
2023-10-05T08:22:57.533Z,99012.63
2023-10-05T08:25:26.225Z,99010.94
2023-10-05T08:27:57.166Z,98998.63
2023-10-05T08:30:26.193Z,99000.06
2023-10-05T08:32:59.646Z,99009.34
2023-10-05T08:35:41.623Z,99006.50
2023-10-05T08:38:16.368Z,99013.03
2023-10-05T08:40:44.807Z,98994.78
2023-10-05T08:43:17.723Z,98998.25
2023-10-05T08:45:53.304Z,99006.16
2023-10-05T08:48:30.177Z,99002.50
2023-10-05T08:51:06.336Z,99000.72
2023-10-05T08:53:34.446Z,99008.91
2023-10-05T08:56:04.037Z,98988.38
2023-10-05T08:58:35.795Z,98989.84
2023-10-05T09:01:23.177Z,98995.44
2023-10-05T09:04:02.376Z,98986.06
2023-10-05T09:06:31.991Z,98982.13
2023-10-05T09:09:15.741Z,98974.06
2023-10-05T09:11:44.241Z,98981.19
2023-10-05T09:14:19.212Z,98988.09
2023-10-05T09:16:52.237Z,98983.63
2023-10-05T09:19:30.705Z,98984.25
2023-10-05T09:22:12.624Z,98987.59
2023-10-05T09:24:44.730Z,98986.50
2023-10-05T09:27:15.197Z,98983.03
2023-10-05T09:29:45.001Z,98981.38
2023-10-05T09:32:24.408Z,98985.72
2023-10-05T09:34:57.360Z,98975.06
2023-10-05T09:37:30.509Z,98976.38
2023-10-05T09:40:02.153Z,98985.41
2023-10-05T09:42:36.543Z,98978.50
2023-10-05T09:45:10.339Z,98990.81
2023-10-05T09:47:42.072Z,98959.31
2023-10-05T09:50:16.456Z,98956.59
2023-10-05T09:52:47.930Z,98951.97
2023-10-05T09:55:18.583Z,98946.09
2023-10-05T09:57:52.763Z,98942.13
2023-10-05T10:00:31.841Z,98949.69
2023-10-05T10:03:03.520Z,98958.94
2023-10-05T10:05:38.258Z,98940.16
2023-10-05T10:08:14.268Z,98964.66
2023-10-05T10:10:53.133Z,98957.91
2023-10-05T10:13:24.344Z,98961.50
2023-10-05T10:15:55.438Z,98951.53
2023-10-05T10:18:36.296Z,98952.97
2023-10-05T10:21:09.846Z,98946.06
2023-10-05T10:23:40.926Z,98964.53
2023-10-05T10:26:18.365Z,98961.75
2023-10-05T10:29:11.069Z,98955.72
2023-10-05T10:31:48.664Z,98942.94
2023-10-05T10:34:43.283Z,98957.66
2023-10-05T10:37:40.332Z,98956.44
2023-10-05T10:40:14.798Z,98961.28
2023-10-05T10:42:54.756Z,98932.00
2023-10-05T10:45:29.321Z,98942.28
2023-10-05T10:47:58.387Z,98948.28
2023-10-05T10:50:30.619Z,98943.19
2023-10-05T10:53:00.715Z,98963.91
2023-10-05T10:55:37.049Z,98944.00
2023-10-05T10:58:09.979Z,98945.34
2023-10-05T11:00:54.883Z,98941.47
2023-10-05T11:03:26.123Z,98940.63
2023-10-05T11:05:55.791Z,98936.25
2023-10-05T11:08:25.510Z,98933.47
2023-10-05T11:11:07.890Z,98935.41
2023-10-05T11:13:41.614Z,98932.63
2023-10-05T11:16:11.316Z,98938.41
2023-10-05T11:18:59.165Z,98940.28
2023-10-05T11:21:28.706Z,98949.13
2023-10-05T11:24:07.744Z,98948.69
2023-10-05T11:27:06.583Z,98940.81
2023-10-05T11:29:46.731Z,98937.94
2023-10-05T11:32:36.182Z,98936.56
2023-10-05T11:35:19.738Z,98939.84
2023-10-05T11:38:00.175Z,98948.75
2023-10-05T11:40:36.227Z,98935.78
2023-10-05T11:43:07.409Z,98943.06
2023-10-05T11:45:37.028Z,98936.19
2023-10-05T11:48:15.506Z,98943.44
2023-10-05T11:50:55.503Z,98942.00
2023-10-05T11:53:25.582Z,98947.28
2023-10-05T11:55:57.201Z,98955.63
2023-10-05T11:58:26.260Z,98949.78
2023-10-05T12:00:55.801Z,98953.50
2023-10-05T12:03:24.576Z,98951.53
2023-10-05T12:05:53.275Z,98955.50
2023-10-05T12:08:21.249Z,98946.16
2023-10-05T12:10:49.175Z,98939.34
2023-10-05T12:13:18.502Z,98940.88
2023-10-05T12:15:47.151Z,98948.97
2023-10-05T12:18:15.874Z,98935.59
2023-10-05T12:20:44.478Z,98942.56
2023-10-05T12:23:16.244Z,98944.09
2023-10-05T12:25:46.336Z,98941.63
2023-10-05T12:28:15.325Z,98933.94
2023-10-05T12:30:45.510Z,98939.28
2023-10-05T12:33:13.906Z,98936.91
2023-10-05T12:35:43.524Z,98931.75
2023-10-05T12:38:12.482Z,98925.06
2023-10-05T12:40:43.179Z,98933.19
2023-10-05T12:43:18.750Z,98923.75
2023-10-05T12:45:48.813Z,98937.94
2023-10-05T12:48:17.024Z,98933.94
2023-10-05T12:50:45.773Z,98937.44
2023-10-05T12:53:14.191Z,98931.09
2023-10-05T12:55:42.083Z,98942.31
2023-10-05T12:58:11.177Z,98944.81
2023-10-05T13:00:42.230Z,98952.25
2023-10-05T13:03:14.037Z,98945.09
2023-10-05T13:05:46.782Z,98951.59
2023-10-05T13:08:17.186Z,98951.25
2023-10-05T13:10:46.634Z,98948.06
2023-10-05T13:13:21.555Z,98945.22
2023-10-05T13:15:51.848Z,98955.47
2023-10-05T13:18:22.447Z,98957.44
2023-10-05T13:20:51.618Z,98960.97
2023-10-05T13:23:22.906Z,98958.97
2023-10-05T13:25:52.210Z,98957.06
2023-10-05T13:28:23.039Z,98948.09
2023-10-05T13:30:52.264Z,98943.75
2023-10-05T13:33:24.472Z,98925.03
2023-10-05T13:35:53.595Z,98931.47
2023-10-05T13:38:28.854Z,98942.81
2023-10-05T13:41:03.943Z,98939.53
2023-10-05T13:43:33.704Z,98932.28
2023-10-05T13:46:11.526Z,98922.28
2023-10-05T13:48:42.862Z,98917.09
2023-10-05T13:51:12.826Z,98902.66
2023-10-05T13:53:42.849Z,98926.75
2023-10-05T13:56:11.331Z,98924.25
2023-10-05T13:58:42.145Z,98925.13
2023-10-05T14:01:16.725Z,98904.38
2023-10-05T14:03:49.458Z,98899.97
2023-10-05T14:06:18.928Z,98920.50
2023-10-05T14:08:47.660Z,98918.75
2023-10-05T14:11:19.503Z,98912.84
2023-10-05T14:13:47.454Z,98923.09
2023-10-05T14:16:15.937Z,98913.56
2023-10-05T14:18:45.871Z,98918.72
2023-10-05T14:21:18.178Z,98934.28
2023-10-05T14:23:46.388Z,98927.44
2023-10-05T14:26:15.010Z,98920.25
2023-10-05T14:28:43.163Z,98909.47
2023-10-05T14:31:11.653Z,98918.44
2023-10-05T14:33:40.618Z,98917.91
2023-10-05T14:36:13.007Z,98916.34
2023-10-05T14:38:42.820Z,98900.97
2023-10-05T14:41:11.160Z,98899.84
2023-10-05T14:43:45.869Z,98877.72
2023-10-05T14:46:23.189Z,98889.00
2023-10-05T14:48:52.716Z,98883.53
2023-10-05T14:51:20.711Z,98878.94
2023-10-05T14:53:52.741Z,98892.03
2023-10-05T14:56:22.163Z,98917.91
2023-10-05T14:58:50.996Z,98937.19
2023-10-05T15:01:21.122Z,98925.91
2023-10-05T15:03:50.610Z,98946.19
2023-10-05T15:06:20.138Z,98945.28
2023-10-05T15:08:49.546Z,98952.31
2023-10-05T15:11:17.617Z,98935.19
2023-10-05T15:13:45.922Z,98940.16
2023-10-05T15:16:14.214Z,98939.41
2023-10-05T15:18:44.967Z,98932.28
2023-10-05T15:21:13.305Z,98931.56
2023-10-05T15:23:42.282Z,98946.84
2023-10-05T15:26:12.933Z,98943.63
2023-10-05T15:28:44.372Z,98953.88
2023-10-05T15:31:13.683Z,98954.44
2023-10-05T15:33:43.077Z,98956.34
2023-10-05T15:36:11.671Z,98959.88
2023-10-05T15:38:40.612Z,98941.09
2023-10-05T15:41:08.936Z,98949.03
2023-10-05T15:43:39.103Z,98951.66
2023-10-05T15:46:08.388Z,98939.88
2023-10-05T15:48:36.834Z,98939.31
2023-10-05T15:51:04.957Z,98932.25
2023-10-05T15:53:33.730Z,98924.84
2023-10-05T15:56:03.847Z,98924.00
2023-10-05T15:58:33.236Z,98926.50
2023-10-05T16:01:04.738Z,98924.94
2023-10-05T16:03:34.995Z,98922.50
2023-10-05T16:06:04.631Z,98922.59
2023-10-05T16:08:33.355Z,98927.78
2023-10-05T16:11:03.396Z,98935.38
2023-10-05T16:13:31.725Z,98940.81
2023-10-05T16:16:00.410Z,98943.31
2023-10-05T16:18:31.017Z,98950.34
2023-10-05T16:20:59.030Z,98959.84
2023-10-05T16:23:27.471Z,98963.41
2023-10-05T16:25:56.147Z,98960.72
2023-10-05T16:28:25.153Z,98968.00
2023-10-05T16:30:55.233Z,98969.75
2023-10-05T16:33:23.326Z,98967.19
2023-10-05T16:35:55.799Z,98963.94
2023-10-05T16:38:26.430Z,98969.78
2023-10-05T16:40:58.386Z,98969.19
2023-10-05T16:43:27.043Z,98967.38
2023-10-05T16:45:55.981Z,98971.88
2023-10-05T16:48:23.793Z,98968.41
2023-10-05T16:50:54.902Z,98970.09
2023-10-05T16:53:22.970Z,98973.63
2023-10-05T16:55:51.143Z,98968.50
2023-10-05T16:58:20.260Z,98971.03
2023-10-05T17:00:48.691Z,98967.84
2023-10-05T17:03:16.924Z,98979.03
2023-10-05T17:05:45.089Z,98974.19
2023-10-05T17:08:14.720Z,98982.56
2023-10-05T17:10:42.825Z,98993.06
2023-10-05T17:13:10.889Z,98995.59
2023-10-05T17:15:38.938Z,98994.84
2023-10-05T17:18:08.066Z,98993.91
2023-10-05T17:20:39.203Z,98980.06
2023-10-05T17:23:07.804Z,98986.94
2023-10-05T17:25:41.905Z,98992.91
2023-10-05T17:28:11.932Z,98991.25
2023-10-05T17:30:40.698Z,98999.09
2023-10-05T17:33:09.138Z,98997.41
2023-10-05T17:35:41.586Z,99000.91
2023-10-05T17:38:11.751Z,99005.09
2023-10-05T17:40:42.244Z,99004.34
2023-10-05T17:43:10.139Z,99002.75
2023-10-05T17:45:44.010Z,98999.34
2023-10-05T17:48:12.073Z,98999.41
2023-10-05T17:50:43.070Z,98995.22
2023-10-05T17:53:12.207Z,99003.00
2023-10-05T17:55:43.556Z,99001.31
2023-10-05T17:58:13.804Z,98999.66
2023-10-05T18:00:43.372Z,98998.97
2023-10-05T18:03:19.990Z,98995.53
2023-10-05T18:05:53.128Z,98986.16
2023-10-05T18:08:22.147Z,98980.91
2023-10-05T18:10:51.792Z,98974.91
2023-10-05T18:13:21.542Z,98986.31
2023-10-05T18:15:52.539Z,98989.00
2023-10-05T18:18:20.812Z,98988.16
2023-10-05T18:20:50.849Z,98994.31
2023-10-05T18:23:19.990Z,99001.25
2023-10-05T18:25:48.326Z,99005.75
2023-10-05T18:28:17.719Z,99002.56
2023-10-05T18:30:45.997Z,99009.56
2023-10-05T18:33:14.476Z,98997.06
2023-10-05T18:35:44.403Z,99001.53
2023-10-05T18:38:13.474Z,99005.97
2023-10-05T18:40:41.989Z,99016.59
2023-10-05T18:43:10.334Z,99015.88
2023-10-05T18:45:42.005Z,99004.06
2023-10-05T18:48:10.583Z,99006.06
2023-10-05T18:50:38.960Z,99005.94
2023-10-05T18:53:07.144Z,99010.28
2023-10-05T18:55:38.144Z,99015.50
2023-10-05T18:58:06.060Z,99017.34
2023-10-05T19:00:36.428Z,99009.75
2023-10-05T19:03:06.700Z,99016.72
2023-10-05T19:05:35.048Z,99014.25
2023-10-05T19:08:03.087Z,99012.69
2023-10-05T19:10:33.854Z,99028.13
2023-10-05T19:13:01.938Z,99035.22
2023-10-05T19:15:29.867Z,99037.06
2023-10-05T19:17:57.778Z,99032.19
2023-10-05T19:20:27.878Z,99039.16
2023-10-05T19:22:56.119Z,99028.03
2023-10-05T19:25:25.085Z,99028.06
2023-10-05T19:27:54.017Z,99043.41
2023-10-05T19:30:22.429Z,99029.84
2023-10-05T19:32:50.540Z,99037.59
2023-10-05T19:35:19.104Z,99041.13
2023-10-05T19:37:48.677Z,99048.13
2023-10-05T19:40:16.776Z,99036.28
2023-10-05T19:42:44.900Z,99058.59
2023-10-05T19:45:15.372Z,99054.44
2023-10-05T19:47:43.431Z,99054.53
2023-10-05T19:50:12.341Z,99064.97
2023-10-05T19:52:42.941Z,99068.47
2023-10-05T19:55:15.170Z,99072.75
2023-10-05T19:57:44.651Z,99059.94
2023-10-05T20:00:13.844Z,99062.66
2023-10-05T20:02:44.598Z,99069.56
2023-10-05T20:05:14.387Z,99064.47
2023-10-05T20:07:42.739Z,99070.44
2023-10-05T20:10:13.303Z,99071.47
2023-10-05T20:12:41.337Z,99070.53
2023-10-05T20:15:13.127Z,99075.03
2023-10-05T20:17:41.625Z,99072.63
2023-10-05T20:20:13.135Z,99073.47
2023-10-05T20:22:41.175Z,99074.44
2023-10-05T20:25:09.836Z,99078.78
2023-10-05T20:27:39.614Z,99060.09
2023-10-05T20:30:10.659Z,99071.31
2023-10-05T20:32:38.579Z,99083.09
2023-10-05T20:35:07.546Z,99071.25
2023-10-05T20:37:35.938Z,99078.34
2023-10-05T20:40:04.961Z,99081.72
2023-10-05T20:42:33.245Z,99095.50
2023-10-05T20:45:03.454Z,99097.22
2023-10-05T20:47:33.238Z,99099.88
2023-10-05T20:50:01.284Z,99090.47
2023-10-05T20:52:29.795Z,99088.09
2023-10-05T20:54:57.896Z,99094.88
2023-10-05T20:57:25.904Z,99100.16
2023-10-05T20:59:54.199Z,99107.91
2023-10-05T21:02:23.519Z,99103.72
2023-10-05T21:04:51.574Z,99108.06
2023-10-05T21:07:19.475Z,99087.56
2023-10-05T21:09:47.654Z,99097.00
2023-10-05T21:12:16.508Z,99097.91
2023-10-05T21:14:45.043Z,99097.84
2023-10-05T21:17:13.189Z,99103.09
2023-10-05T21:19:42.922Z,99101.25
2023-10-05T21:22:12.592Z,99090.09
2023-10-05T21:24:40.999Z,99090.84
2023-10-05T21:27:09.538Z,99090.09
2023-10-05T21:29:37.470Z,99093.69
2023-10-05T21:32:05.663Z,99088.44
2023-10-05T21:34:33.610Z,99085.78
2023-10-05T21:37:03.992Z,99088.34
2023-10-05T21:39:33.910Z,99090.00
2023-10-05T21:42:02.117Z,99101.44
2023-10-05T21:44:32.730Z,99112.69
2023-10-05T21:47:01.868Z,99105.91
2023-10-05T21:49:29.739Z,99105.13
2023-10-05T21:51:57.782Z,99102.59
2023-10-05T21:54:27.010Z,99109.50
2023-10-05T21:56:55.213Z,99104.38
2023-10-05T21:59:23.088Z,99111.16
2023-10-05T22:01:51.208Z,99103.41
2023-10-05T22:04:20.818Z,99100.91
2023-10-05T22:06:48.610Z,99091.47
2023-10-05T22:09:16.376Z,99098.38
2023-10-05T22:11:45.627Z,99095.91
2023-10-05T22:14:14.677Z,99098.50
2023-10-05T22:16:43.514Z,99100.28
2023-10-05T22:19:11.622Z,99104.66
2023-10-05T22:21:39.468Z,99111.59
2023-10-05T22:24:08.306Z,99107.25
2023-10-05T22:26:36.579Z,99109.03
2023-10-05T22:29:06.981Z,99104.75
2023-10-05T22:31:35.289Z,99106.53
2023-10-05T22:34:03.402Z,99105.69
2023-10-05T22:36:31.567Z,99109.13
2023-10-05T22:38:59.955Z,99100.66
2023-10-05T22:41:28.439Z,99100.69
2023-10-05T22:43:56.375Z,99114.38
2023-10-05T22:46:25.707Z,99116.94
2023-10-05T22:48:53.592Z,99104.16
2023-10-05T22:51:22.353Z,99109.28
2023-10-05T22:53:50.829Z,99108.44
2023-10-05T22:56:18.855Z,99106.69
2023-10-05T22:58:47.749Z,99107.59
2023-10-05T23:01:16.529Z,99103.38
2023-10-05T23:03:46.288Z,99111.84
2023-10-05T23:06:14.481Z,99111.03
2023-10-05T23:08:42.336Z,99108.47
2023-10-05T23:11:10.801Z,99103.34
2023-10-05T23:13:43.413Z,99111.06
2023-10-05T23:16:18.736Z,99107.66
2023-10-05T23:18:49.905Z,99110.25
2023-10-05T23:21:19.204Z,99112.78
2023-10-05T23:23:47.161Z,99123.06
2023-10-05T23:26:16.222Z,99124.78
2023-10-05T23:28:44.850Z,99128.22
2023-10-05T23:31:17.130Z,99131.66
2023-10-05T23:33:46.722Z,99141.06
2023-10-05T23:36:19.246Z,99149.63
2023-10-05T23:38:47.551Z,99156.47
2023-10-05T23:41:15.724Z,99160.75
2023-10-05T23:43:44.692Z,99163.31
2023-10-05T23:46:15.898Z,99155.63
2023-10-05T23:48:43.884Z,99160.75
2023-10-05T23:51:11.828Z,99165.88
2023-10-05T23:53:41.094Z,99166.72
2023-10-05T23:56:10.900Z,99166.75
2023-10-05T23:58:38.927Z,99171.00
